createdAt,value
2022-12-01T00:01:29.198Z,4.41
2022-12-01T00:04:31.776Z,4.24
2022-12-01T00:07:33.741Z,4.08
2022-12-01T00:10:36.013Z,4.10
2022-12-01T00:13:37.918Z,3.91
2022-12-01T00:16:41.074Z,3.95
2022-12-01T00:19:43.124Z,3.89
2022-12-01T00:22:46.079Z,3.86
2022-12-01T00:25:47.979Z,3.81
2022-12-01T00:28:54.199Z,3.78
2022-12-01T00:31:56.137Z,3.50
2022-12-01T00:34:58.473Z,3.51
2022-12-01T00:38:00.331Z,3.41
2022-12-01T00:41:03.019Z,3.40
2022-12-01T00:44:05.135Z,3.53
2022-12-01T00:47:07.402Z,3.42
2022-12-01T00:50:09.588Z,3.26
2022-12-01T00:53:11.902Z,3.39
2022-12-01T00:56:13.873Z,3.32
2022-12-01T00:59:16.081Z,3.18
2022-12-01T01:02:18.097Z,3.18
2022-12-01T01:05:20.406Z,3.16
2022-12-01T01:08:22.324Z,3.04
2022-12-01T01:11:24.965Z,2.94
2022-12-01T01:14:27.104Z,3.02
2022-12-01T01:17:29.295Z,2.96
2022-12-01T01:20:31.264Z,2.91
2022-12-01T01:23:33.491Z,2.90
2022-12-01T01:26:36.916Z,2.81
2022-12-01T01:29:39.128Z,2.76
2022-12-01T01:32:40.982Z,2.74
2022-12-01T01:35:43.114Z,2.70
2022-12-01T01:38:45.677Z,2.61
2022-12-01T01:41:47.897Z,2.55
2022-12-01T01:44:51.605Z,2.52
2022-12-01T01:47:54.800Z,2.55
2022-12-01T01:50:56.931Z,2.51
2022-12-01T01:54:02.270Z,2.48
2022-12-01T01:57:05.733Z,2.32
2022-12-01T02:00:09.285Z,2.25
2022-12-01T02:03:15.685Z,2.25
2022-12-01T02:06:17.920Z,2.26
2022-12-01T02:09:19.777Z,2.26
2022-12-01T02:12:31.325Z,2.24
2022-12-01T02:15:39.210Z,2.17
2022-12-01T02:18:46.543Z,2.09
2022-12-01T02:22:07.339Z,1.81
2022-12-01T02:25:20.468Z,1.58
2022-12-01T02:28:22.343Z,1.42
2022-12-01T02:31:47.846Z,1.32
2022-12-01T02:35:01.102Z,1.27
2022-12-01T02:38:10.046Z,1.20
2022-12-01T02:41:16.697Z,1.16
2022-12-01T02:44:22.559Z,1.18
2022-12-01T02:47:24.683Z,1.42
2022-12-01T02:50:28.432Z,1.84
2022-12-01T02:53:30.472Z,2.10
2022-12-01T02:56:32.693Z,2.06
2022-12-01T02:59:34.559Z,2.07
2022-12-01T03:02:48.606Z,1.90
2022-12-01T03:05:58.476Z,1.90
2022-12-01T03:09:23.251Z,1.86
2022-12-01T03:12:31.163Z,1.71
2022-12-01T03:15:47.372Z,1.90
2022-12-01T03:18:53.388Z,1.96
2022-12-01T03:22:01.563Z,1.72
2022-12-01T03:25:04.232Z,1.45
2022-12-01T03:28:24.591Z,1.31
2022-12-01T03:31:30.788Z,1.30
2022-12-01T03:34:37.319Z,1.24
2022-12-01T03:37:48.123Z,1.16
2022-12-01T03:40:52.884Z,1.13
2022-12-01T03:44:03.082Z,1.18
2022-12-01T03:47:10.710Z,1.33
2022-12-01T03:50:14.211Z,1.29
2022-12-01T03:53:23.671Z,1.44
2022-12-01T03:56:29.317Z,1.55
2022-12-01T03:59:32.487Z,1.73
2022-12-01T04:02:34.562Z,1.94
2022-12-01T04:05:36.733Z,1.92
2022-12-01T04:08:38.899Z,1.97
2022-12-01T04:11:59.919Z,1.87
2022-12-01T04:15:12.524Z,1.89
2022-12-01T04:18:14.742Z,1.78
2022-12-01T04:21:16.632Z,1.73
2022-12-01T04:24:18.874Z,1.73
2022-12-01T04:27:20.852Z,1.88
2022-12-01T04:30:23.287Z,1.88
2022-12-01T04:33:25.535Z,1.82
2022-12-01T04:36:30.283Z,1.87
2022-12-01T04:39:32.192Z,1.64
2022-12-01T04:42:34.373Z,1.42
2022-12-01T04:45:38.023Z,1.25
2022-12-01T04:48:40.302Z,1.18
2022-12-01T04:51:42.311Z,1.29
2022-12-01T04:54:44.459Z,1.48
2022-12-01T04:57:46.369Z,1.65
2022-12-01T05:00:48.615Z,1.64
2022-12-01T05:03:50.767Z,1.56
2022-12-01T05:06:54.108Z,1.57
2022-12-01T05:09:55.969Z,1.53
2022-12-01T05:12:58.390Z,1.42
2022-12-01T05:16:12.633Z,1.38
2022-12-01T05:19:33.691Z,1.40
2022-12-01T05:23:03.846Z,1.33
2022-12-01T05:25:57.879Z,1.30
2022-12-01T05:28:59.774Z,1.22
2022-12-01T05:32:03.037Z,1.35
2022-12-01T05:35:05.385Z,1.47
2022-12-01T05:38:08.317Z,1.25
2022-12-01T05:41:10.303Z,1.18
2022-12-01T05:44:12.493Z,1.24
2022-12-01T05:47:14.366Z,1.22
2022-12-01T05:50:16.571Z,1.22
2022-12-01T05:53:19.033Z,1.17
2022-12-01T05:56:21.842Z,1.11
2022-12-01T05:59:23.812Z,0.98
2022-12-01T06:02:29.040Z,0.92
2022-12-01T06:05:31.784Z,0.95
2022-12-01T06:08:33.752Z,1.13
2022-12-01T06:11:36.722Z,1.09
2022-12-01T06:14:38.874Z,1.12
2022-12-01T06:17:41.197Z,1.03
2022-12-01T06:20:43.090Z,1.06
2022-12-01T06:23:45.483Z,0.86
2022-12-01T06:26:47.433Z,0.97
2022-12-01T06:29:50.039Z,0.96
2022-12-01T06:32:52.320Z,0.92
2022-12-01T06:36:01.969Z,0.96
2022-12-01T06:39:10.493Z,0.89
2022-12-01T06:42:12.856Z,0.91
2022-12-01T06:45:14.849Z,0.96
2022-12-01T06:48:17.029Z,0.94
2022-12-01T06:51:18.978Z,0.93
2022-12-01T06:54:21.485Z,0.99
2022-12-01T06:57:23.339Z,1.15
2022-12-01T07:00:25.762Z,1.18
2022-12-01T07:03:27.698Z,1.18
2022-12-01T07:06:30.244Z,1.24
2022-12-01T07:09:32.264Z,1.31
2022-12-01T07:12:34.784Z,1.38
2022-12-01T07:15:38.130Z,1.44
2022-12-01T07:18:40.594Z,1.65
2022-12-01T07:21:42.610Z,1.70
2022-12-01T07:24:44.880Z,1.82
2022-12-01T07:27:46.944Z,1.85
2022-12-01T07:30:49.307Z,1.95
2022-12-01T07:33:51.760Z,2.16
2022-12-01T07:36:54.081Z,2.19
2022-12-01T07:39:55.949Z,2.09
2022-12-01T07:42:58.171Z,2.20
2022-12-01T07:46:03.745Z,2.18
2022-12-01T07:49:07.130Z,2.20
2022-12-01T07:52:09.090Z,2.31
2022-12-01T07:55:11.236Z,2.49
2022-12-01T07:58:13.140Z,2.56
2022-12-01T08:01:20.427Z,2.54
2022-12-01T08:04:22.754Z,2.76
2022-12-01T08:07:29.557Z,2.84
2022-12-01T08:10:32.186Z,2.90
2022-12-01T08:13:34.420Z,3.11
2022-12-01T08:16:36.621Z,3.06
2022-12-01T08:19:38.552Z,3.14
2022-12-01T08:22:40.735Z,3.23
2022-12-01T08:25:42.745Z,3.26
2022-12-01T08:28:45.289Z,3.44
2022-12-01T08:31:47.189Z,3.52
2022-12-01T08:34:53.281Z,3.65
2022-12-01T08:37:55.561Z,3.57
2022-12-01T08:41:01.663Z,3.66
2022-12-01T08:44:03.609Z,3.69
2022-12-01T08:47:05.725Z,4.01
2022-12-01T08:50:08.074Z,4.10
2022-12-01T08:53:10.944Z,4.19
2022-12-01T08:56:14.984Z,4.09
2022-12-01T08:59:17.307Z,4.25
2022-12-01T09:02:22.339Z,4.40
2022-12-01T09:05:24.697Z,4.61
2022-12-01T09:08:32.809Z,4.75
2022-12-01T09:11:35.009Z,4.80
2022-12-01T09:14:39.229Z,4.95
2022-12-01T09:17:43.257Z,5.65
2022-12-01T09:20:45.405Z,6.44
2022-12-01T09:23:47.992Z,7.10
2022-12-01T09:26:49.896Z,7.14
2022-12-01T09:29:52.295Z,7.00
2022-12-01T09:32:54.380Z,7.07
2022-12-01T09:36:00.120Z,6.73
2022-12-01T09:39:02.180Z,6.70
2022-12-01T09:42:15.405Z,6.97
2022-12-01T09:45:25.553Z,7.10
2022-12-01T09:48:31.315Z,7.24
2022-12-01T09:51:36.187Z,7.18
2022-12-01T09:54:38.509Z,7.37
2022-12-01T09:57:40.898Z,7.45
2022-12-01T10:00:43.881Z,7.44
2022-12-01T10:03:50.469Z,7.37
2022-12-01T10:06:59.162Z,7.19
2022-12-01T10:10:03.218Z,7.01
2022-12-01T10:13:25.259Z,6.78
2022-12-01T10:16:30.375Z,6.51
2022-12-01T10:19:44.592Z,6.56
2022-12-01T10:22:52.875Z,6.59
2022-12-01T10:26:09.904Z,6.56
2022-12-01T10:29:27.232Z,6.61
2022-12-01T10:32:32.708Z,6.67
2022-12-01T10:35:37.130Z,6.61
2022-12-01T10:38:39.223Z,6.70
2022-12-01T10:41:41.439Z,6.88
2022-12-01T10:44:44.292Z,6.70
2022-12-01T10:48:05.094Z,6.68
2022-12-01T10:51:17.404Z,6.75
2022-12-01T10:54:19.952Z,6.77
2022-12-01T10:57:23.418Z,6.84
2022-12-01T11:00:57.942Z,6.81
2022-12-01T11:03:51.850Z,6.82
2022-12-01T11:06:54.428Z,6.78
2022-12-01T11:10:05.662Z,6.73
2022-12-01T11:13:17.486Z,6.67
2022-12-01T11:16:38.288Z,6.50
2022-12-01T11:19:40.669Z,6.67
2022-12-01T11:22:42.611Z,6.72
2022-12-01T11:25:57.252Z,6.76
2022-12-01T11:29:00.888Z,6.66
2022-12-01T11:32:12.428Z,7.40
2022-12-01T11:35:19.666Z,8.24
2022-12-01T11:38:30.937Z,8.94
2022-12-01T11:41:32.902Z,9.55
2022-12-01T11:44:51.014Z,11.21
2022-12-01T11:48:05.777Z,13.40
2022-12-01T11:51:08.028Z,13.91
2022-12-01T11:54:14.887Z,14.07
2022-12-01T11:57:33.811Z,15.20
2022-12-01T12:00:47.812Z,14.57
2022-12-01T12:04:02.264Z,13.03
2022-12-01T12:07:19.587Z,12.32
2022-12-01T12:10:24.960Z,11.59
2022-12-01T12:13:45.459Z,10.73
2022-12-01T12:16:57.000Z,9.38
2022-12-01T12:20:18.116Z,9.07
2022-12-01T12:23:39.417Z,9.36
2022-12-01T12:26:41.355Z,10.16
2022-12-01T12:29:46.276Z,10.28
2022-12-01T12:33:07.124Z,10.08
2022-12-01T12:36:16.483Z,10.18
2022-12-01T12:39:44.622Z,10.35
2022-12-01T12:43:07.675Z,10.02
2022-12-01T12:46:17.075Z,9.57
2022-12-01T12:49:31.335Z,9.28
2022-12-01T12:52:40.585Z,9.04
2022-12-01T12:55:48.081Z,8.75
2022-12-01T12:58:56.810Z,8.72
2022-12-01T13:02:03.621Z,8.50
2022-12-01T13:05:10.050Z,8.20
2022-12-01T13:08:21.443Z,7.97
2022-12-01T13:11:27.084Z,7.51
2022-12-01T13:14:35.819Z,7.83
2022-12-01T13:17:39.549Z,7.94
2022-12-01T13:20:42.429Z,8.14
2022-12-01T13:23:45.883Z,8.34
2022-12-01T13:26:50.248Z,8.37
2022-12-01T13:29:53.589Z,8.55
2022-12-01T13:33:01.334Z,8.07
2022-12-01T13:36:38.596Z,8.02
2022-12-01T13:39:35.918Z,7.91
2022-12-01T13:42:40.487Z,8.16
2022-12-01T13:45:43.077Z,8.16
2022-12-01T13:48:44.930Z,8.03
2022-12-01T13:52:06.169Z,7.83
2022-12-01T13:55:11.804Z,7.60
2022-12-01T13:58:14.201Z,7.37
2022-12-01T14:01:20.295Z,7.13
2022-12-01T14:04:24.994Z,6.98
2022-12-01T14:07:37.204Z,6.91
2022-12-01T14:10:39.577Z,6.81
2022-12-01T14:14:00.545Z,6.67
2022-12-01T14:17:03.275Z,6.55
2022-12-01T14:20:14.666Z,6.41
2022-12-01T14:23:21.368Z,6.35
2022-12-01T14:26:23.647Z,6.30
2022-12-01T14:29:36.085Z,6.29
2022-12-01T14:32:38.029Z,6.19
2022-12-01T14:35:40.302Z,6.03
2022-12-01T14:38:42.643Z,5.91
2022-12-01T14:41:50.507Z,5.96
2022-12-01T14:44:54.674Z,5.90
2022-12-01T14:48:09.998Z,5.91
2022-12-01T14:51:16.362Z,5.94
2022-12-01T14:54:22.246Z,5.90
2022-12-01T14:57:28.124Z,5.86
2022-12-01T15:00:31.260Z,5.79
2022-12-01T15:03:35.408Z,5.72
2022-12-01T15:06:37.825Z,5.71
2022-12-01T15:09:57.881Z,5.62
2022-12-01T15:13:12.585Z,5.72
2022-12-01T15:16:16.399Z,5.71
2022-12-01T15:19:43.867Z,5.64
2022-12-01T15:22:45.837Z,5.65
2022-12-01T15:25:48.102Z,5.55
2022-12-01T15:28:50.592Z,5.44
2022-12-01T15:31:58.511Z,5.41
2022-12-01T15:35:05.409Z,5.36
2022-12-01T15:38:15.512Z,5.35
2022-12-01T15:41:29.080Z,5.46
2022-12-01T15:44:33.100Z,5.45
2022-12-01T15:47:36.782Z,5.34
2022-12-01T15:50:46.283Z,5.34
2022-12-01T15:53:54.013Z,5.38
2022-12-01T15:56:58.868Z,5.36
2022-12-01T16:00:00.725Z,5.29
2022-12-01T16:03:05.321Z,5.36
2022-12-01T16:06:11.497Z,5.10
2022-12-01T16:09:25.910Z,5.03
2022-12-01T16:12:29.367Z,4.86
2022-12-01T16:15:31.300Z,4.85
2022-12-01T16:18:33.968Z,5.11
2022-12-01T16:21:46.734Z,5.12
2022-12-01T16:24:49.251Z,4.99
2022-12-01T16:27:52.773Z,5.01
2022-12-01T16:30:55.052Z,4.94
2022-12-01T16:34:06.556Z,4.96
2022-12-01T16:37:16.479Z,5.01
2022-12-01T16:40:18.734Z,5.07
2022-12-01T16:43:22.881Z,5.04
2022-12-01T16:46:24.863Z,5.15
2022-12-01T16:49:27.091Z,4.97
2022-12-01T16:52:45.643Z,4.72
2022-12-01T16:55:50.984Z,4.77
2022-12-01T16:58:53.041Z,4.90
2022-12-01T17:01:55.253Z,4.75
2022-12-01T17:04:57.346Z,4.63
2022-12-01T17:08:00.003Z,4.76
2022-12-01T17:11:04.989Z,4.87
2022-12-01T17:14:07.297Z,4.84
2022-12-01T17:17:09.163Z,4.83
2022-12-01T17:20:11.823Z,4.51
2022-12-01T17:23:13.748Z,4.27
2022-12-01T17:26:16.903Z,4.09
2022-12-01T17:29:18.845Z,3.95
2022-12-01T17:32:21.266Z,3.89
2022-12-01T17:35:23.255Z,3.84
2022-12-01T17:38:25.447Z,3.73
2022-12-01T17:41:32.383Z,3.65
2022-12-01T17:44:35.124Z,3.58
2022-12-01T17:47:36.993Z,3.50
2022-12-01T17:50:39.218Z,3.44
2022-12-01T17:53:41.199Z,3.37
2022-12-01T17:56:43.505Z,3.27
2022-12-01T17:59:45.459Z,3.18
2022-12-01T18:02:47.890Z,3.13
2022-12-01T18:05:57.218Z,3.12
2022-12-01T18:08:59.579Z,3.09
2022-12-01T18:12:01.822Z,3.08
2022-12-01T18:15:05.640Z,3.06
2022-12-01T18:18:07.929Z,3.03
2022-12-01T18:21:11.496Z,3.04
2022-12-01T18:24:13.713Z,3.02
2022-12-01T18:27:15.788Z,2.95
2022-12-01T18:30:18.073Z,2.89
2022-12-01T18:33:21.012Z,2.83
2022-12-01T18:36:25.503Z,2.78
2022-12-01T18:39:27.741Z,2.74
2022-12-01T18:42:29.953Z,2.73
2022-12-01T18:45:33.127Z,2.78
2022-12-01T18:48:35.988Z,2.79
2022-12-01T18:51:38.312Z,2.78
2022-12-01T18:54:42.791Z,2.76
2022-12-01T18:57:44.648Z,2.76
2022-12-01T19:00:48.002Z,2.73
2022-12-01T19:03:50.648Z,2.71
2022-12-01T19:06:54.967Z,2.81
2022-12-01T19:09:56.933Z,2.79
2022-12-01T19:12:59.845Z,2.73
2022-12-01T19:16:06.727Z,2.79
2022-12-01T19:19:09.802Z,2.76
2022-12-01T19:22:14.691Z,2.74
2022-12-01T19:25:19.437Z,2.78
2022-12-01T19:28:21.461Z,2.69
2022-12-01T19:31:24.492Z,2.65
2022-12-01T19:34:26.512Z,2.71
2022-12-01T19:37:29.286Z,2.64
2022-12-01T19:40:31.297Z,2.61
2022-12-01T19:43:34.277Z,2.65
2022-12-01T19:46:36.230Z,2.64
2022-12-01T19:49:38.482Z,2.60
2022-12-01T19:52:41.473Z,2.61
2022-12-01T19:55:44.867Z,2.68
2022-12-01T19:58:46.760Z,2.63
2022-12-01T20:01:49.476Z,2.68
2022-12-01T20:04:52.177Z,2.70
2022-12-01T20:07:54.420Z,2.59
2022-12-01T20:10:58.430Z,2.61
2022-12-01T20:14:01.006Z,2.73
2022-12-01T20:17:03.412Z,2.68
2022-12-01T20:20:05.800Z,2.70
2022-12-01T20:23:08.222Z,2.90
2022-12-01T20:26:10.696Z,2.91
2022-12-01T20:29:15.047Z,3.15
2022-12-01T20:32:22.024Z,3.22
2022-12-01T20:35:25.666Z,3.12
2022-12-01T20:38:27.960Z,2.90
2022-12-01T20:41:30.197Z,2.72
2022-12-01T20:44:32.059Z,2.57
2022-12-01T20:47:36.651Z,2.41
2022-12-01T20:50:39.917Z,2.48
2022-12-01T20:53:54.404Z,2.69
2022-12-01T20:57:01.736Z,2.62
2022-12-01T21:00:05.495Z,2.43
2022-12-01T21:03:07.509Z,2.38
2022-12-01T21:06:10.797Z,2.36
2022-12-01T21:09:13.585Z,2.58
2022-12-01T21:12:35.712Z,2.33
2022-12-01T21:15:50.470Z,2.35
2022-12-01T21:19:00.205Z,2.36
2022-12-01T21:22:02.097Z,2.18
2022-12-01T21:25:12.189Z,1.98
2022-12-01T21:28:24.611Z,1.85
2022-12-01T21:31:26.959Z,1.73
2022-12-01T21:34:28.939Z,1.70
2022-12-01T21:37:31.503Z,1.70
2022-12-01T21:40:33.584Z,1.56
2022-12-01T21:43:38.515Z,1.56
2022-12-01T21:46:42.392Z,1.52
2022-12-01T21:49:45.351Z,1.40
2022-12-01T21:52:48.010Z,1.42
2022-12-01T21:55:50.266Z,1.44
2022-12-01T21:58:53.189Z,1.35
2022-12-01T22:01:56.701Z,1.35
2022-12-01T22:04:59.420Z,1.30
2022-12-01T22:08:30.420Z,1.30
2022-12-01T22:11:32.676Z,1.36
2022-12-01T22:14:35.344Z,1.33
2022-12-01T22:17:37.683Z,1.48
2022-12-01T22:20:39.591Z,1.47
2022-12-01T22:23:41.850Z,1.61
2022-12-01T22:26:46.482Z,1.74
2022-12-01T22:29:50.740Z,1.80
2022-12-01T22:32:57.165Z,1.86
2022-12-01T22:35:59.510Z,1.93
2022-12-01T22:39:01.464Z,2.09
2022-12-01T22:42:07.842Z,2.06
2022-12-01T22:45:23.097Z,2.14
2022-12-01T22:48:28.017Z,2.18
2022-12-01T22:51:36.610Z,2.20
2022-12-01T22:54:42.867Z,2.13
2022-12-01T22:57:44.809Z,2.27
2022-12-01T23:00:47.148Z,2.27
2022-12-01T23:03:49.328Z,2.30
2022-12-01T23:06:54.874Z,2.24
2022-12-01T23:09:59.096Z,2.28
2022-12-01T23:13:12.614Z,2.39
2022-12-01T23:16:14.609Z,2.54
2022-12-01T23:19:16.816Z,2.55
2022-12-01T23:22:18.757Z,2.53
2022-12-01T23:25:21.059Z,2.61
2022-12-01T23:28:24.033Z,2.48
2022-12-01T23:31:27.301Z,2.48
2022-12-01T23:34:29.257Z,2.69
2022-12-01T23:37:31.689Z,2.56
2022-12-01T23:40:35.134Z,2.63
2022-12-01T23:43:42.534Z,2.47
2022-12-01T23:46:44.896Z,2.51
2022-12-01T23:49:47.875Z,2.54
2022-12-01T23:52:49.759Z,2.50
2022-12-01T23:55:51.996Z,2.56
2022-12-01T23:58:54.819Z,2.44
